sensor_id;sensor_type;location;lat;lon;timestamp;pressure;altitude;pressure_sealevel;temperature;humidity
49611;BME280;35515;48.766;9.176;2024-01-30T00:00:23;99691.97;;;4.12;85.99
49611;BME280;35515;48.766;9.176;2024-01-30T00:02:50;99684.91;;;4.11;86.50
49611;BME280;35515;48.766;9.176;2024-01-30T00:05:16;99685.75;;;4.12;86.87
49611;BME280;35515;48.766;9.176;2024-01-30T00:07:43;99683.34;;;4.09;87.21
49611;BME280;35515;48.766;9.176;2024-01-30T00:10:11;99678.75;;;3.90;88.67
49611;BME280;35515;48.766;9.176;2024-01-30T00:12:38;99687.59;;;4.11;87.30
49611;BME280;35515;48.766;9.176;2024-01-30T00:15:05;99689.47;;;4.21;86.35
49611;BME280;35515;48.766;9.176;2024-01-30T00:17:34;99681.84;;;4.16;86.61
49611;BME280;35515;48.766;9.176;2024-01-30T00:20:01;99681.84;;;4.16;87.08
49611;BME280;35515;48.766;9.176;2024-01-30T00:22:30;99688.84;;;4.07;86.98
49611;BME280;35515;48.766;9.176;2024-01-30T00:24:57;99689.81;;;4.06;87.13
49611;BME280;35515;48.766;9.176;2024-01-30T00:27:25;99692.81;;;4.13;86.89
49611;BME280;35515;48.766;9.176;2024-01-30T00:29:52;99686.31;;;4.06;87.41
49611;BME280;35515;48.766;9.176;2024-01-30T00:32:18;99686.06;;;3.88;88.70
49611;BME280;35515;48.766;9.176;2024-01-30T00:34:45;99689.53;;;3.78;89.59
49611;BME280;35515;48.766;9.176;2024-01-30T00:37:12;99685.59;;;3.82;89.62
49611;BME280;35515;48.766;9.176;2024-01-30T00:39:38;99684.72;;;3.72;89.77
49611;BME280;35515;48.766;9.176;2024-01-30T00:42:05;99681.25;;;3.81;89.44
49611;BME280;35515;48.766;9.176;2024-01-30T00:44:35;99682.59;;;3.97;88.99
49611;BME280;35515;48.766;9.176;2024-01-30T00:47:04;99685.72;;;4.02;88.32
49611;BME280;35515;48.766;9.176;2024-01-30T00:49:31;99685.72;;;4.02;88.57
49611;BME280;35515;48.766;9.176;2024-01-30T00:51:57;99685.44;;;4.05;88.52
49611;BME280;35515;48.766;9.176;2024-01-30T00:54:24;99690.75;;;3.95;88.70
49611;BME280;35515;48.766;9.176;2024-01-30T00:56:50;99695.28;;;3.95;88.98
49611;BME280;35515;48.766;9.176;2024-01-30T00:59:20;99695.69;;;3.90;89.52
49611;BME280;35515;48.766;9.176;2024-01-30T01:01:47;99691.34;;;3.99;88.57
49611;BME280;35515;48.766;9.176;2024-01-30T01:04:14;99690.81;;;4.05;88.28
49611;BME280;35515;48.766;9.176;2024-01-30T01:06:41;99689.94;;;3.95;88.92
49611;BME280;35515;48.766;9.176;2024-01-30T01:09:09;99686.69;;;4.01;88.64
49611;BME280;35515;48.766;9.176;2024-01-30T01:11:36;99690.13;;;3.82;89.63
49611;BME280;35515;48.766;9.176;2024-01-30T01:14:03;99696.28;;;3.73;90.94
49611;BME280;35515;48.766;9.176;2024-01-30T01:16:29;99700.59;;;3.85;89.71
49611;BME280;35515;48.766;9.176;2024-01-30T01:18:57;99696.34;;;3.82;90.23
49611;BME280;35515;48.766;9.176;2024-01-30T01:21:25;99689.66;;;3.98;89.18
49611;BME280;35515;48.766;9.176;2024-01-30T01:23:52;99694.66;;;3.81;90.17
49611;BME280;35515;48.766;9.176;2024-01-30T01:26:18;99690.72;;;3.85;90.94
49611;BME280;35515;48.766;9.176;2024-01-30T01:28:45;99690.44;;;3.89;90.26
49611;BME280;35515;48.766;9.176;2024-01-30T01:31:11;99687.06;;;3.87;90.87
49611;BME280;35515;48.766;9.176;2024-01-30T01:33:38;99684.19;;;3.78;91.21
49611;BME280;35515;48.766;9.176;2024-01-30T01:36:06;99689.94;;;3.95;89.58
49611;BME280;35515;48.766;9.176;2024-01-30T01:38:32;99684.72;;;3.72;91.03
49611;BME280;35515;48.766;9.176;2024-01-30T01:40:59;99679.41;;;3.82;90.50
49611;BME280;35515;48.766;9.176;2024-01-30T01:43:25;99696.13;;;3.95;90.30
49611;BME280;35515;48.766;9.176;2024-01-30T01:45:52;99680.53;;;3.79;91.63
49611;BME280;35515;48.766;9.176;2024-01-30T01:48:19;99687.28;;;3.74;92.00
49611;BME280;35515;48.766;9.176;2024-01-30T01:50:46;99692.34;;;3.77;92.37
49611;BME280;35515;48.766;9.176;2024-01-30T01:53:15;99686.75;;;3.80;92.90
49611;BME280;35515;48.766;9.176;2024-01-30T01:55:42;99688.97;;;3.75;92.60
49611;BME280;35515;48.766;9.176;2024-01-30T01:58:09;99679.81;;;3.77;92.81
49611;BME280;35515;48.766;9.176;2024-01-30T02:00:38;99690.31;;;3.90;91.65
49611;BME280;35515;48.766;9.176;2024-01-30T02:03:08;99671.50;;;3.80;92.17
49611;BME280;35515;48.766;9.176;2024-01-30T02:05:36;99675.03;;;3.60;94.32
49611;BME280;35515;48.766;9.176;2024-01-30T02:08:03;99687.13;;;3.54;95.41
49611;BME280;35515;48.766;9.176;2024-01-30T02:10:32;99683.41;;;3.66;93.93
49611;BME280;35515;48.766;9.176;2024-01-30T02:12:58;99690.47;;;3.67;93.54
49611;BME280;35515;48.766;9.176;2024-01-30T02:15:25;99690.41;;;3.58;94.56
49611;BME280;35515;48.766;9.176;2024-01-30T02:17:51;99692.44;;;3.65;94.47
49611;BME280;35515;48.766;9.176;2024-01-30T02:20:18;99697.47;;;3.80;93.13
49611;BME280;35515;48.766;9.176;2024-01-30T02:22:46;99695.44;;;3.72;93.01
49611;BME280;35515;48.766;9.176;2024-01-30T02:25:14;99693.88;;;3.70;92.98
49611;BME280;35515;48.766;9.176;2024-01-30T02:27:41;99693.47;;;3.74;92.64
49611;BME280;35515;48.766;9.176;2024-01-30T02:30:08;99699.38;;;3.68;92.64
49611;BME280;35515;48.766;9.176;2024-01-30T02:32:35;99702.16;;;3.66;93.43
49611;BME280;35515;48.766;9.176;2024-01-30T02:35:01;99697.13;;;3.73;92.69
49611;BME280;35515;48.766;9.176;2024-01-30T02:37:28;99701.28;;;3.56;94.51
49611;BME280;35515;48.766;9.176;2024-01-30T02:39:56;99691.75;;;3.73;93.72
49611;BME280;35515;48.766;9.176;2024-01-30T02:42:22;99687.22;;;3.64;93.82
49611;BME280;35515;48.766;9.176;2024-01-30T02:44:49;99685.84;;;3.70;93.56
49611;BME280;35515;48.766;9.176;2024-01-30T02:47:15;99688.09;;;3.53;93.87
49611;BME280;35515;48.766;9.176;2024-01-30T02:49:42;99683.44;;;3.45;95.02
49611;BME280;35515;48.766;9.176;2024-01-30T02:52:09;99683.28;;;3.26;96.36
49611;BME280;35515;48.766;9.176;2024-01-30T02:54:35;99691.72;;;3.42;95.87
49611;BME280;35515;48.766;9.176;2024-01-30T02:57:03;99694.19;;;3.55;94.53
49611;BME280;35515;48.766;9.176;2024-01-30T02:59:30;99692.81;;;3.61;93.69
49611;BME280;35515;48.766;9.176;2024-01-30T03:01:58;99684.59;;;3.53;94.24
49611;BME280;35515;48.766;9.176;2024-01-30T03:04:25;99680.16;;;3.63;93.77
49611;BME280;35515;48.766;9.176;2024-01-30T03:06:51;99677.47;;;3.63;93.64
49611;BME280;35515;48.766;9.176;2024-01-30T03:09:18;99686.03;;;3.57;93.65
49611;BME280;35515;48.766;9.176;2024-01-30T03:11:44;99680.72;;;3.66;92.63
49611;BME280;35515;48.766;9.176;2024-01-30T03:14:12;99678.78;;;3.68;92.62
49611;BME280;35515;48.766;9.176;2024-01-30T03:16:39;99674.84;;;3.51;92.98
49611;BME280;35515;48.766;9.176;2024-01-30T03:19:06;99682.66;;;3.55;93.02
49611;BME280;35515;48.766;9.176;2024-01-30T03:21:34;99681.72;;;3.44;93.60
49611;BME280;35515;48.766;9.176;2024-01-30T03:24:01;99681.00;;;3.63;92.34
49611;BME280;35515;48.766;9.176;2024-01-30T03:26:27;99686.03;;;3.57;93.25
49611;BME280;35515;48.766;9.176;2024-01-30T03:28:54;99687.69;;;3.48;94.17
49611;BME280;35515;48.766;9.176;2024-01-30T03:31:22;99682.09;;;3.61;93.19
49611;BME280;35515;48.766;9.176;2024-01-30T03:33:48;99683.47;;;3.55;93.51
49611;BME280;35515;48.766;9.176;2024-01-30T03:36:15;99684.09;;;3.59;93.32
49611;BME280;35515;48.766;9.176;2024-01-30T03:38:41;99681.44;;;3.47;94.36
49611;BME280;35515;48.766;9.176;2024-01-30T03:41:08;99686.47;;;3.41;94.88
49611;BME280;35515;48.766;9.176;2024-01-30T03:43:35;99689.16;;;3.41;95.59
49611;BME280;35515;48.766;9.176;2024-01-30T03:46:02;99674.78;;;3.42;95.21
49611;BME280;35515;48.766;9.176;2024-01-30T03:48:30;99686.03;;;3.57;94.54
49611;BME280;35515;48.766;9.176;2024-01-30T03:50:56;99682.09;;;3.61;93.12
49611;BME280;35515;48.766;9.176;2024-01-30T03:53:23;99681.03;;;3.73;92.21
49611;BME280;35515;48.766;9.176;2024-01-30T03:55:49;99688.69;;;3.78;92.24
49611;BME280;35515;48.766;9.176;2024-01-30T03:58:16;99685.44;;;3.74;91.80
49611;BME280;35515;48.766;9.176;2024-01-30T04:00:42;99693.56;;;3.63;92.63
49611;BME280;35515;48.766;9.176;2024-01-30T04:03:09;99701.19;;;3.67;92.60
49611;BME280;35515;48.766;9.176;2024-01-30T04:05:37;99697.25;;;3.72;91.66
49611;BME280;35515;48.766;9.176;2024-01-30T04:08:04;99695.25;;;3.64;92.56
49611;BME280;35515;48.766;9.176;2024-01-30T04:10:31;99686.63;;;3.60;92.50
49611;BME280;35515;48.766;9.176;2024-01-30T04:12:57;99692.97;;;3.59;92.42
49611;BME280;35515;48.766;9.176;2024-01-30T04:15:24;99689.75;;;3.65;92.16
49611;BME280;35515;48.766;9.176;2024-01-30T04:17:51;99687.66;;;3.69;92.46
49611;BME280;35515;48.766;9.176;2024-01-30T04:20:18;99686.47;;;3.83;91.62
49611;BME280;35515;48.766;9.176;2024-01-30T04:22:46;99688.28;;;3.82;91.29
49611;BME280;35515;48.766;9.176;2024-01-30T04:25:13;99683.03;;;3.71;91.22
49611;BME280;35515;48.766;9.176;2024-01-30T04:27:40;99681.72;;;3.65;92.65
49611;BME280;35515;48.766;9.176;2024-01-30T04:30:07;99680.53;;;3.79;91.61
49611;BME280;35515;48.766;9.176;2024-01-30T04:32:35;99681.94;;;3.83;91.31
49611;BME280;35515;48.766;9.176;2024-01-30T04:35:02;99679.44;;;3.92;89.45
49611;BME280;35515;48.766;9.176;2024-01-30T04:37:29;99682.22;;;3.80;90.22
49611;BME280;35515;48.766;9.176;2024-01-30T04:39:56;99680.97;;;3.84;89.57
49611;BME280;35515;48.766;9.176;2024-01-30T04:42:23;99681.25;;;3.81;90.04
49611;BME280;35515;48.766;9.176;2024-01-30T04:44:49;99680.41;;;3.60;91.46
49611;BME280;35515;48.766;9.176;2024-01-30T04:47:16;99677.63;;;3.61;90.93
49611;BME280;35515;48.766;9.176;2024-01-30T04:49:43;99684.72;;;3.72;90.45
49611;BME280;35515;48.766;9.176;2024-01-30T04:52:09;99685.28;;;3.76;90.23
49611;BME280;35515;48.766;9.176;2024-01-30T04:54:36;99690.59;;;3.66;90.88
49611;BME280;35515;48.766;9.176;2024-01-30T04:57:04;99683.84;;;3.72;90.75
49611;BME280;35515;48.766;9.176;2024-01-30T04:59:34;99689.75;;;3.65;90.80
49611;BME280;35515;48.766;9.176;2024-01-30T05:02:01;99690.59;;;3.66;90.85
49611;BME280;35515;48.766;9.176;2024-01-30T05:04:27;99697.94;;;3.64;90.96
49611;BME280;35515;48.766;9.176;2024-01-30T05:06:54;99693.78;;;3.60;90.97
49611;BME280;35515;48.766;9.176;2024-01-30T05:09:20;99699.09;;;3.71;90.38
49611;BME280;35515;48.766;9.176;2024-01-30T05:11:47;99697.59;;;3.57;91.30
49611;BME280;35515;48.766;9.176;2024-01-30T05:14:15;99700.22;;;3.47;92.52
49611;BME280;35515;48.766;9.176;2024-01-30T05:16:41;99702.63;;;3.50;91.73
49611;BME280;35515;48.766;9.176;2024-01-30T05:19:12;99698.06;;;3.41;92.35
49611;BME280;35515;48.766;9.176;2024-01-30T05:21:38;99696.47;;;3.60;91.40
49611;BME280;35515;48.766;9.176;2024-01-30T05:24:07;99692.50;;;3.54;92.23
49611;BME280;35515;48.766;9.176;2024-01-30T05:26:35;99705.56;;;3.47;93.05
49611;BME280;35515;48.766;9.176;2024-01-30T05:29:02;99693.28;;;3.45;93.12
49611;BME280;35515;48.766;9.176;2024-01-30T05:31:29;99696.69;;;3.47;92.82
49611;BME280;35515;48.766;9.176;2024-01-30T05:33:56;99695.03;;;3.56;92.36
49611;BME280;35515;48.766;9.176;2024-01-30T05:36:22;99692.97;;;3.59;92.05
49611;BME280;35515;48.766;9.176;2024-01-30T05:38:49;99689.94;;;3.53;92.20
49611;BME280;35515;48.766;9.176;2024-01-30T05:41:16;99708.56;;;3.54;91.54
49611;BME280;35515;48.766;9.176;2024-01-30T05:43:42;99696.75;;;3.57;91.24
49611;BME280;35515;48.766;9.176;2024-01-30T05:46:09;99707.94;;;3.62;91.34
49611;BME280;35515;48.766;9.176;2024-01-30T05:48:37;99705.25;;;3.62;91.41
49611;BME280;35515;48.766;9.176;2024-01-30T05:51:04;99708.50;;;3.44;92.11
49611;BME280;35515;48.766;9.176;2024-01-30T05:53:30;99703.16;;;3.44;93.44
49611;BME280;35515;48.766;9.176;2024-01-30T05:55:57;99708.06;;;3.39;92.59
49611;BME280;35515;48.766;9.176;2024-01-30T05:58:23;99708.50;;;3.44;92.88
49611;BME280;35515;48.766;9.176;2024-01-30T06:00:50;99711.97;;;3.35;92.90
49611;BME280;35515;48.766;9.176;2024-01-30T06:03:17;99711.91;;;3.46;92.73
49611;BME280;35515;48.766;9.176;2024-01-30T06:05:45;99710.94;;;3.47;92.28
49611;BME280;35515;48.766;9.176;2024-01-30T06:08:11;99713.09;;;3.54;92.40
49611;BME280;35515;48.766;9.176;2024-01-30T06:10:38;99718.13;;;3.47;92.12
49611;BME280;35515;48.766;9.176;2024-01-30T06:13:05;99715.59;;;3.45;92.42
49611;BME280;35515;48.766;9.176;2024-01-30T06:15:32;99717.06;;;3.38;92.55
49611;BME280;35515;48.766;9.176;2024-01-30T06:17:58;99705.16;;;3.31;93.89
49611;BME280;35515;48.766;9.176;2024-01-30T06:20:25;99711.22;;;3.33;92.93
49611;BME280;35515;48.766;9.176;2024-01-30T06:22:53;99712.75;;;3.47;92.41
49611;BME280;35515;48.766;9.176;2024-01-30T06:25:19;99701.72;;;3.40;92.38
49611;BME280;35515;48.766;9.176;2024-01-30T06:27:46;99711.06;;;3.46;92.11
49611;BME280;35515;48.766;9.176;2024-01-30T06:30:13;99713.22;;;3.31;92.83
49611;BME280;35515;48.766;9.176;2024-01-30T06:32:39;99720.97;;;3.34;93.42
49611;BME280;35515;48.766;9.176;2024-01-30T06:35:06;99719.22;;;3.44;91.94
49611;BME280;35515;48.766;9.176;2024-01-30T06:37:33;99712.44;;;3.40;92.32
49611;BME280;35515;48.766;9.176;2024-01-30T06:40:01;99711.69;;;3.38;92.03
49611;BME280;35515;48.766;9.176;2024-01-30T06:42:29;99710.72;;;3.39;91.97
49611;BME280;35515;48.766;9.176;2024-01-30T06:44:56;99713.75;;;3.46;91.48
49611;BME280;35515;48.766;9.176;2024-01-30T06:47:23;99713.00;;;3.44;91.93
49611;BME280;35515;48.766;9.176;2024-01-30T06:49:49;99713.28;;;3.41;91.75
49611;BME280;35515;48.766;9.176;2024-01-30T06:52:16;99710.25;;;3.34;92.61
49611;BME280;35515;48.766;9.176;2024-01-30T06:54:42;99714.31;;;3.28;92.63
49611;BME280;35515;48.766;9.176;2024-01-30T06:57:10;99720.47;;;3.40;92.26
49611;BME280;35515;48.766;9.176;2024-01-30T06:59:39;99719.22;;;3.44;92.20
49611;BME280;35515;48.766;9.176;2024-01-30T07:02:08;99722.09;;;3.53;92.00
49611;BME280;35515;48.766;9.176;2024-01-30T07:04:36;99719.56;;;3.51;91.69
49611;BME280;35515;48.766;9.176;2024-01-30T07:07:04;99720.22;;;3.43;91.99
49611;BME280;35515;48.766;9.176;2024-01-30T07:09:31;99715.34;;;3.37;92.77
49611;BME280;35515;48.766;9.176;2024-01-30T07:11:57;99723.84;;;3.42;92.03
49611;BME280;35515;48.766;9.176;2024-01-30T07:14:26;99733.34;;;3.46;92.07
49611;BME280;35515;48.766;9.176;2024-01-30T07:16:52;99732.81;;;3.53;91.44
49611;BME280;35515;48.766;9.176;2024-01-30T07:19:19;99729.63;;;3.38;92.38
49611;BME280;35515;48.766;9.176;2024-01-30T07:21:45;99734.34;;;3.45;92.01
49611;BME280;35515;48.766;9.176;2024-01-30T07:24:12;99726.88;;;3.49;92.30
49611;BME280;35515;48.766;9.176;2024-01-30T07:26:38;99727.78;;;3.38;92.62
49611;BME280;35515;48.766;9.176;2024-01-30T07:29:05;99730.09;;;3.43;92.84
49611;BME280;35515;48.766;9.176;2024-01-30T07:31:32;99729.00;;;3.34;93.58
49611;BME280;35515;48.766;9.176;2024-01-30T07:33:59;99723.41;;;3.58;92.43
49611;BME280;35515;48.766;9.176;2024-01-30T07:36:25;99729.03;;;3.55;93.08
49611;BME280;35515;48.766;9.176;2024-01-30T07:38:52;99728.97;;;3.45;93.53
49611;BME280;35515;48.766;9.176;2024-01-30T07:41:20;99729.94;;;3.44;94.25
49611;BME280;35515;48.766;9.176;2024-01-30T07:43:46;99729.69;;;3.47;92.79
49611;BME280;35515;48.766;9.176;2024-01-30T07:46:13;99726.66;;;3.41;93.81
49611;BME280;35515;48.766;9.176;2024-01-30T07:48:40;99731.13;;;3.51;92.73
49611;BME280;35515;48.766;9.176;2024-01-30T07:51:07;99729.19;;;3.75;90.40
49611;BME280;35515;48.766;9.176;2024-01-30T07:53:33;99742.25;;;3.68;90.62
49611;BME280;35515;48.766;9.176;2024-01-30T07:56:00;99743.69;;;3.72;89.85
49611;BME280;35515;48.766;9.176;2024-01-30T07:58:27;99740.00;;;3.73;90.06
49611;BME280;35515;48.766;9.176;2024-01-30T08:00:54;99738.78;;;3.56;91.25
49611;BME280;35515;48.766;9.176;2024-01-30T08:03:23;99741.59;;;3.55;91.95
49611;BME280;35515;48.766;9.176;2024-01-30T08:05:51;99742.78;;;3.62;90.99
49611;BME280;35515;48.766;9.176;2024-01-30T08:08:17;99738.66;;;3.58;91.87
49611;BME280;35515;48.766;9.176;2024-01-30T08:10:44;99735.09;;;3.57;92.43
49611;BME280;35515;48.766;9.176;2024-01-30T08:13:11;99738.25;;;3.62;91.41
49611;BME280;35515;48.766;9.176;2024-01-30T08:15:37;99737.28;;;3.63;92.03
49611;BME280;35515;48.766;9.176;2024-01-30T08:18:04;99740.00;;;3.73;91.76
49611;BME280;35515;48.766;9.176;2024-01-30T08:20:32;99739.91;;;3.75;91.72
49611;BME280;35515;48.766;9.176;2024-01-30T08:23:00;99737.41;;;3.83;90.66
49611;BME280;35515;48.766;9.176;2024-01-30T08:25:26;99743.16;;;3.99;89.83
49611;BME280;35515;48.766;9.176;2024-01-30T08:27:53;99734.97;;;4.01;89.56
49611;BME280;35515;48.766;9.176;2024-01-30T08:30:19;99737.91;;;3.98;90.37
49611;BME280;35515;48.766;9.176;2024-01-30T08:32:46;99731.84;;;3.96;89.79
49611;BME280;35515;48.766;9.176;2024-01-30T08:35:13;99733.22;;;3.90;90.79
49611;BME280;35515;48.766;9.176;2024-01-30T08:37:41;99725.25;;;4.00;91.13
49611;BME280;35515;48.766;9.176;2024-01-30T08:40:10;99728.91;;;3.99;90.78
49611;BME280;35515;48.766;9.176;2024-01-30T08:42:36;99732.03;;;4.04;90.97
49611;BME280;35515;48.766;9.176;2024-01-30T08:45:04;99730.50;;;4.11;90.53
49611;BME280;35515;48.766;9.176;2024-01-30T08:47:31;99735.91;;;4.21;89.92
49611;BME280;35515;48.766;9.176;2024-01-30T08:49:58;99722.13;;;4.26;89.89
49611;BME280;35515;48.766;9.176;2024-01-30T08:52:25;99732.31;;;4.32;89.84
49611;BME280;35515;48.766;9.176;2024-01-30T08:54:51;99725.69;;;4.36;89.42
49611;BME280;35515;48.766;9.176;2024-01-30T08:57:19;99734.19;;;4.41;89.00
49611;BME280;35515;48.766;9.176;2024-01-30T08:59:46;99736.03;;;4.50;89.20
49611;BME280;35515;48.766;9.176;2024-01-30T09:02:13;99737.59;;;4.53;88.29
49611;BME280;35515;48.766;9.176;2024-01-30T09:04:41;99743.28;;;4.60;88.56
49611;BME280;35515;48.766;9.176;2024-01-30T09:07:09;99744.59;;;4.65;88.28
49611;BME280;35515;48.766;9.176;2024-01-30T09:09:35;99744.44;;;4.67;88.05
49611;BME280;35515;48.766;9.176;2024-01-30T09:12:05;99745.72;;;4.73;87.53
49611;BME280;35515;48.766;9.176;2024-01-30T09:14:35;99750.41;;;4.80;87.12
49611;BME280;35515;48.766;9.176;2024-01-30T09:17:02;99749.88;;;4.87;86.75
49611;BME280;35515;48.766;9.176;2024-01-30T09:19:29;99754.69;;;4.93;86.92
49611;BME280;35515;48.766;9.176;2024-01-30T09:21:56;99756.09;;;4.97;86.27
49611;BME280;35515;48.766;9.176;2024-01-30T09:24:22;99757.81;;;5.08;86.37
49611;BME280;35515;48.766;9.176;2024-01-30T09:26:49;99761.06;;;5.11;86.84
49611;BME280;35515;48.766;9.176;2024-01-30T09:29:15;99755.84;;;5.10;87.19
49611;BME280;35515;48.766;9.176;2024-01-30T09:31:44;99758.69;;;5.08;87.42
49611;BME280;35515;48.766;9.176;2024-01-30T09:34:11;99751.59;;;5.07;87.46
49611;BME280;35515;48.766;9.176;2024-01-30T09:36:37;99766.00;;;5.06;87.93
49611;BME280;35515;48.766;9.176;2024-01-30T09:39:04;99755.41;;;5.05;87.94
49611;BME280;35515;48.766;9.176;2024-01-30T09:41:32;99754.00;;;5.10;87.47
49611;BME280;35515;48.766;9.176;2024-01-30T09:44:00;99751.34;;;5.20;87.25
49611;BME280;35515;48.766;9.176;2024-01-30T09:46:30;99760.53;;;5.17;87.27
49611;BME280;35515;48.766;9.176;2024-01-30T09:49:00;99760.38;;;5.29;86.78
49611;BME280;35515;48.766;9.176;2024-01-30T09:51:29;99751.47;;;5.38;85.78
49611;BME280;35515;48.766;9.176;2024-01-30T09:53:56;99761.69;;;5.44;85.58
49611;BME280;35515;48.766;9.176;2024-01-30T09:56:23;99761.69;;;5.44;85.83
49611;BME280;35515;48.766;9.176;2024-01-30T09:58:49;99761.25;;;5.49;85.49
49611;BME280;35515;48.766;9.176;2024-01-30T10:01:17;99762.81;;;5.51;85.42
49611;BME280;35515;48.766;9.176;2024-01-30T10:03:44;99761.53;;;5.56;84.74
49611;BME280;35515;48.766;9.176;2024-01-30T10:06:12;99760.13;;;5.61;85.02
49611;BME280;35515;48.766;9.176;2024-01-30T10:08:39;99766.91;;;5.75;84.91
49611;BME280;35515;48.766;9.176;2024-01-30T10:11:06;99762.63;;;5.82;84.03
49611;BME280;35515;48.766;9.176;2024-01-30T10:13:33;99758.81;;;5.85;83.59
49611;BME280;35515;48.766;9.176;2024-01-30T10:16:00;99762.06;;;5.89;83.10
49611;BME280;35515;48.766;9.176;2024-01-30T10:18:28;99755.13;;;5.96;83.30
49611;BME280;35515;48.766;9.176;2024-01-30T10:20:54;99758.97;;;6.03;83.08
49611;BME280;35515;48.766;9.176;2024-01-30T10:23:22;99755.00;;;6.07;82.68
49611;BME280;35515;48.766;9.176;2024-01-30T10:25:50;99754.00;;;6.08;82.00
49611;BME280;35515;48.766;9.176;2024-01-30T10:28:17;99751.44;;;6.16;82.36
49611;BME280;35515;48.766;9.176;2024-01-30T10:30:44;99757.91;;;6.24;81.43
49611;BME280;35515;48.766;9.176;2024-01-30T10:33:10;99755.94;;;6.26;81.70
49611;BME280;35515;48.766;9.176;2024-01-30T10:35:37;99748.69;;;6.26;82.04
49611;BME280;35515;48.766;9.176;2024-01-30T10:38:05;99745.28;;;6.34;81.86
49611;BME280;35515;48.766;9.176;2024-01-30T10:40:36;99746.00;;;6.36;81.20
49611;BME280;35515;48.766;9.176;2024-01-30T10:43:04;99737.59;;;6.39;81.22
49611;BME280;35515;48.766;9.176;2024-01-30T10:45:35;99738.69;;;6.46;80.87
49611;BME280;35515;48.766;9.176;2024-01-30T10:48:05;99748.59;;;6.56;80.07
49611;BME280;35515;48.766;9.176;2024-01-30T10:50:34;99740.91;;;6.61;79.92
49611;BME280;35515;48.766;9.176;2024-01-30T10:53:01;99738.63;;;6.66;80.29
49611;BME280;35515;48.766;9.176;2024-01-30T10:55:29;99730.94;;;6.71;79.44
49611;BME280;35515;48.766;9.176;2024-01-30T10:57:58;99728.66;;;6.76;79.74
49611;BME280;35515;48.766;9.176;2024-01-30T11:00:25;99726.38;;;6.81;79.13
49611;BME280;35515;48.766;9.176;2024-01-30T11:02:53;99725.47;;;6.91;78.76
49611;BME280;35515;48.766;9.176;2024-01-30T11:05:28;99725.16;;;6.94;78.52
49611;BME280;35515;48.766;9.176;2024-01-30T11:07:55;99722.84;;;6.99;78.28
49611;BME280;35515;48.766;9.176;2024-01-30T11:10:24;99725.22;;;7.02;78.10
49611;BME280;35515;48.766;9.176;2024-01-30T11:12:51;99723.91;;;7.06;78.36
49611;BME280;35515;48.766;9.176;2024-01-30T11:15:19;99725.63;;;7.07;78.84
49611;BME280;35515;48.766;9.176;2024-01-30T11:17:50;99712.84;;;7.09;78.65
49611;BME280;35515;48.766;9.176;2024-01-30T11:20:20;99714.91;;;7.15;78.40
49611;BME280;35515;48.766;9.176;2024-01-30T11:22:47;99722.25;;;7.23;77.97
49611;BME280;35515;48.766;9.176;2024-01-30T11:25:15;99724.19;;;7.31;77.01
49611;BME280;35515;48.766;9.176;2024-01-30T11:27:42;99721.47;;;7.31;77.00
49611;BME280;35515;48.766;9.176;2024-01-30T11:30:09;99712.09;;;7.35;76.94
49611;BME280;35515;48.766;9.176;2024-01-30T11:32:37;99708.06;;;7.39;77.13
49611;BME280;35515;48.766;9.176;2024-01-30T11:35:05;99709.13;;;7.46;77.03
49611;BME280;35515;48.766;9.176;2024-01-30T11:37:36;99711.69;;;7.48;76.45
49611;BME280;35515;48.766;9.176;2024-01-30T11:40:04;99710.69;;;7.49;77.05
49611;BME280;35515;48.766;9.176;2024-01-30T11:42:31;99711.53;;;7.49;77.28
49611;BME280;35515;48.766;9.176;2024-01-30T11:45:00;99702.13;;;7.53;76.65
49611;BME280;35515;48.766;9.176;2024-01-30T11:47:27;99703.91;;;7.63;76.82
49611;BME280;35515;48.766;9.176;2024-01-30T11:49:55;99704.28;;;7.68;76.10
49611;BME280;35515;48.766;9.176;2024-01-30T11:52:22;99700.72;;;7.67;76.16
49611;BME280;35515;48.766;9.176;2024-01-30T11:54:48;99701.97;;;7.73;75.84
49611;BME280;35515;48.766;9.176;2024-01-30T11:57:15;99695.53;;;7.74;75.68
49611;BME280;35515;48.766;9.176;2024-01-30T11:59:42;99691.50;;;7.78;75.55
49611;BME280;35515;48.766;9.176;2024-01-30T12:02:08;99689.34;;;7.82;75.36
49611;BME280;35515;48.766;9.176;2024-01-30T12:04:35;99688.25;;;7.93;74.46
49611;BME280;35515;48.766;9.176;2024-01-30T12:07:03;99682.19;;;7.91;75.28
49611;BME280;35515;48.766;9.176;2024-01-30T12:09:30;99680.84;;;7.95;75.15
49611;BME280;35515;48.766;9.176;2024-01-30T12:11:57;99677.00;;;7.97;75.25
49611;BME280;35515;48.766;9.176;2024-01-30T12:14:23;99673.78;;;8.02;75.10
49611;BME280;35515;48.766;9.176;2024-01-30T12:16:50;99674.16;;;8.07;75.25
49611;BME280;35515;48.766;9.176;2024-01-30T12:19:23;99677.56;;;8.09;74.86
49611;BME280;35515;48.766;9.176;2024-01-30T12:21:54;99673.22;;;8.16;74.80
49611;BME280;35515;48.766;9.176;2024-01-30T12:24:23;99668.81;;;8.15;74.95
49611;BME280;35515;48.766;9.176;2024-01-30T12:26:50;99664.09;;;8.17;75.24
49611;BME280;35515;48.766;9.176;2024-01-30T12:29:17;99662.41;;;8.16;75.39
49611;BME280;35515;48.766;9.176;2024-01-30T12:31:43;99663.44;;;8.24;74.35
49611;BME280;35515;48.766;9.176;2024-01-30T12:34:13;99669.53;;;8.26;74.78
49611;BME280;35515;48.766;9.176;2024-01-30T12:36:40;99663.13;;;8.27;74.40
49611;BME280;35515;48.766;9.176;2024-01-30T12:39:10;99661.44;;;8.26;74.87
49611;BME280;35515;48.766;9.176;2024-01-30T12:41:38;99665.34;;;8.31;73.93
49611;BME280;35515;48.766;9.176;2024-01-30T12:44:05;99662.34;;;8.34;74.15
49611;BME280;35515;48.766;9.176;2024-01-30T12:46:33;99663.88;;;8.37;73.96
49611;BME280;35515;48.766;9.176;2024-01-30T12:49:00;99659.50;;;8.44;73.15
49611;BME280;35515;48.766;9.176;2024-01-30T12:51:27;99661.22;;;8.45;72.64
49611;BME280;35515;48.766;9.176;2024-01-30T12:53:53;99659.34;;;8.46;72.68
49611;BME280;35515;48.766;9.176;2024-01-30T12:56:20;99666.81;;;8.52;72.10
49611;BME280;35515;48.766;9.176;2024-01-30T12:58:48;99659.38;;;8.54;72.21
49611;BME280;35515;48.766;9.176;2024-01-30T13:01:14;99660.56;;;8.51;71.92
49611;BME280;35515;48.766;9.176;2024-01-30T13:03:41;99659.91;;;8.58;71.35
49611;BME280;35515;48.766;9.176;2024-01-30T13:06:08;99668.72;;;8.60;72.41
49611;BME280;35515;48.766;9.176;2024-01-30T13:08:34;99661.28;;;8.62;71.77